createdAt,value
2022-08-17T00:00:52.844Z,49.05
2022-08-17T00:02:57.466Z,49.28
2022-08-17T00:05:02.398Z,49.45
2022-08-17T00:07:06.911Z,49.34
2022-08-17T00:09:19.930Z,49.59
2022-08-17T00:11:24.485Z,49.56
2022-08-17T00:13:28.998Z,49.48
2022-08-17T00:15:33.519Z,49.44
2022-08-17T00:17:37.982Z,49.49
2022-08-17T00:19:42.558Z,49.69
2022-08-17T00:22:37.943Z,49.71
2022-08-17T00:24:42.693Z,49.85
2022-08-17T00:26:47.649Z,49.86
2022-08-17T00:28:54.093Z,49.77
2022-08-17T00:30:58.556Z,49.97
2022-08-17T00:33:18.149Z,49.84
2022-08-17T00:35:22.633Z,49.62
2022-08-17T00:37:27.081Z,49.69
2022-08-17T00:39:31.919Z,49.69
2022-08-17T00:41:36.558Z,49.36
2022-08-17T00:43:46.921Z,49.58
2022-08-17T00:45:51.401Z,49.5
2022-08-17T00:47:56.052Z,49.56
2022-08-17T00:50:00.627Z,49.55
2022-08-17T00:52:13.743Z,49.57
2022-08-17T00:54:18.283Z,49.4
2022-08-17T00:56:22.841Z,49.45
2022-08-17T00:58:38.203Z,49.51
2022-08-17T01:00:42.968Z,49.43
2022-08-17T01:02:47.520Z,49.31
2022-08-17T01:04:52.077Z,49.52
2022-08-17T01:06:56.595Z,49.58
2022-08-17T01:09:01.088Z,49.55
2022-08-17T01:11:05.629Z,49.33
2022-08-17T01:13:10.151Z,49.39
2022-08-17T01:15:14.645Z,49.31
2022-08-17T01:17:19.193Z,49.37
2022-08-17T01:19:23.671Z,49.25
2022-08-17T01:21:28.232Z,49.28
2022-08-17T01:23:32.683Z,49.15
2022-08-17T01:25:37.267Z,49.16
2022-08-17T01:27:41.770Z,49
2022-08-17T01:29:46.255Z,49.15
2022-08-17T01:31:50.925Z,49.17
2022-08-17T01:33:55.543Z,49.11
2022-08-17T01:36:00.020Z,49.12
2022-08-17T01:38:04.683Z,49.12
2022-08-17T01:40:09.751Z,48.99
2022-08-17T01:42:16.003Z,49.27
2022-08-17T01:44:20.467Z,49.29
2022-08-17T01:46:24.909Z,49.26
2022-08-17T01:48:29.431Z,49.28
2022-08-17T01:50:33.913Z,49.37
2022-08-17T01:52:38.478Z,49.4
2022-08-17T01:54:43.081Z,49.38
2022-08-17T01:56:49.739Z,49.44
2022-08-17T01:58:54.264Z,49.39
2022-08-17T02:01:03.219Z,49.6
2022-08-17T02:03:07.745Z,49.67
2022-08-17T02:05:13.913Z,49.58
2022-08-17T02:07:27.205Z,49.62
2022-08-17T02:09:32.386Z,49.72
2022-08-17T02:11:36.925Z,49.82
2022-08-17T02:13:41.578Z,49.96
2022-08-17T02:15:46.062Z,50.01
2022-08-17T02:17:56.933Z,49.89
2022-08-17T02:20:01.494Z,50.34
2022-08-17T02:22:05.995Z,50.24
2022-08-17T02:24:10.492Z,50.26
2022-08-17T02:26:28.431Z,50.18
2022-08-17T02:28:32.971Z,50.43
2022-08-17T02:31:04.403Z,50.22
2022-08-17T02:33:11.470Z,50.13
2022-08-17T02:35:23.255Z,50.23
2022-08-17T02:37:27.803Z,50.16
2022-08-17T02:39:32.703Z,50.15
2022-08-17T02:41:37.267Z,50.03
2022-08-17T02:43:41.746Z,50
2022-08-17T02:45:46.402Z,50.09
2022-08-17T02:47:50.869Z,49.89
2022-08-17T02:49:57.965Z,49.88
2022-08-17T02:52:02.519Z,49.94
2022-08-17T02:54:43.622Z,49.98
2022-08-17T02:56:48.214Z,49.92
2022-08-17T02:58:52.736Z,49.97
2022-08-17T03:00:59.866Z,49.87
2022-08-17T03:03:04.435Z,49.99
2022-08-17T03:05:08.930Z,50.03
2022-08-17T03:07:13.451Z,50.13
2022-08-17T03:09:17.942Z,50.05
2022-08-17T03:11:22.509Z,50.05
2022-08-17T03:13:27.025Z,50.03
2022-08-17T03:15:31.566Z,50.01
2022-08-17T03:17:36.145Z,49.89
2022-08-17T03:19:45.077Z,49.69
2022-08-17T03:21:57.291Z,50.16
2022-08-17T03:24:09.905Z,50.15
2022-08-17T03:26:20.462Z,50.11
2022-08-17T03:28:25.287Z,50.04
2022-08-17T03:30:29.803Z,50.17
2022-08-17T03:32:34.309Z,49.99
2022-08-17T03:34:38.814Z,50.24
2022-08-17T03:36:43.366Z,50.31
2022-08-17T03:38:48.293Z,50.34
2022-08-17T03:41:01.211Z,50.45
2022-08-17T03:43:05.724Z,50.45
2022-08-17T03:45:10.252Z,50.32
2022-08-17T03:47:14.732Z,50.32
2022-08-17T03:49:19.287Z,50.29
2022-08-17T03:51:23.802Z,50.38
2022-08-17T03:53:28.321Z,50.3
2022-08-17T03:55:38.535Z,50.24
2022-08-17T03:57:43.072Z,50.3
2022-08-17T03:59:48.879Z,50.33
2022-08-17T04:01:55.537Z,50.36
2022-08-17T04:04:00.133Z,50.24
2022-08-17T04:06:04.754Z,50.28
2022-08-17T04:08:09.252Z,50.27
2022-08-17T04:10:13.895Z,50.36
2022-08-17T04:12:18.389Z,50.38
2022-08-17T04:14:22.911Z,50.22
2022-08-17T04:16:27.415Z,50.34
2022-08-17T04:18:34.735Z,50.44
2022-08-17T04:20:39.255Z,50.36
2022-08-17T04:22:43.981Z,50.43
2022-08-17T04:24:53.109Z,50.38
2022-08-17T04:26:58.118Z,50.39
2022-08-17T04:29:02.719Z,50.43
2022-08-17T04:31:08.917Z,50.43
2022-08-17T04:33:14.218Z,50.51
2022-08-17T04:35:19.021Z,50.52
2022-08-17T04:37:23.556Z,50.5
2022-08-17T04:39:28.287Z,50.52
2022-08-17T04:41:32.818Z,50.67
2022-08-17T04:43:37.332Z,50.39
2022-08-17T04:45:57.205Z,50.3
2022-08-17T04:48:01.844Z,50.42
2022-08-17T04:50:06.357Z,50.72
2022-08-17T04:52:44.593Z,50.7
2022-08-17T04:54:50.338Z,50.89
2022-08-17T04:56:54.839Z,50.71
2022-08-17T04:58:59.373Z,50.67
2022-08-17T05:01:04.115Z,50.48
2022-08-17T05:03:08.706Z,50.43
2022-08-17T05:05:14.934Z,50.32
2022-08-17T05:07:31.642Z,50.29
2022-08-17T05:09:36.295Z,50.33
2022-08-17T05:11:46.963Z,50.35
2022-08-17T05:13:51.698Z,50.18
2022-08-17T05:15:56.215Z,50.3
2022-08-17T05:18:00.733Z,50.12
2022-08-17T05:20:05.259Z,50.09
2022-08-17T05:22:09.772Z,49.98
2022-08-17T05:24:55.564Z,49.99
2022-08-17T05:27:08.151Z,50.03
2022-08-17T05:29:12.605Z,49.47
2022-08-17T05:31:17.156Z,49.3
2022-08-17T05:33:21.666Z,49.34
2022-08-17T05:35:26.246Z,49.19
2022-08-17T05:37:30.739Z,49.08
2022-08-17T05:39:35.526Z,49.14
2022-08-17T05:41:40.058Z,49.31
2022-08-17T05:43:44.480Z,49.27
2022-08-17T05:45:57.794Z,49.12
2022-08-17T05:48:02.475Z,49.03
2022-08-17T05:50:21.156Z,48.91
2022-08-17T05:52:30.614Z,48.83
2022-08-17T05:54:35.134Z,48.71
2022-08-17T05:56:39.641Z,48.77
2022-08-17T05:58:44.180Z,48.61
2022-08-17T06:00:49.007Z,48.72
2022-08-17T06:02:54.926Z,48.97
2022-08-17T06:04:59.510Z,49.08
2022-08-17T06:07:04.030Z,49.06
2022-08-17T06:09:08.656Z,49.06
2022-08-17T06:11:13.720Z,49.13
2022-08-17T06:13:18.202Z,49.19
2022-08-17T06:15:22.715Z,49.22
2022-08-17T06:17:27.206Z,49.15
2022-08-17T06:19:31.755Z,49.16
2022-08-17T06:21:36.276Z,49.16
2022-08-17T06:23:40.799Z,49.15
2022-08-17T06:25:45.308Z,48.94
2022-08-17T06:27:55.608Z,48.95
2022-08-17T06:30:00.178Z,48.83
2022-08-17T06:32:04.815Z,48.77
2022-08-17T06:34:09.309Z,48.43
2022-08-17T06:36:18.962Z,48.56
2022-08-17T06:38:40.023Z,48.32
2022-08-17T06:40:44.593Z,48.24
2022-08-17T06:43:09.004Z,48.26
2022-08-17T06:45:13.624Z,48.27
2022-08-17T06:47:30.610Z,48.16
2022-08-17T06:49:35.116Z,48.07
2022-08-17T06:51:39.575Z,47.99
2022-08-17T06:53:44.163Z,47.91
2022-08-17T06:55:48.790Z,47.9
2022-08-17T06:57:53.512Z,47.99
2022-08-17T06:59:58.783Z,48.12
2022-08-17T07:02:03.344Z,48.08
2022-08-17T07:04:14.260Z,48.03
2022-08-17T07:06:18.985Z,48
2022-08-17T07:08:34.649Z,47.92
2022-08-17T07:10:39.567Z,47.93
2022-08-17T07:12:44.238Z,47.91
2022-08-17T07:14:48.811Z,47.85
2022-08-17T07:16:53.377Z,47.83
2022-08-17T07:18:58.054Z,47.86
2022-08-17T07:21:03.796Z,47.9
2022-08-17T07:23:08.310Z,47.93
2022-08-17T07:25:21.794Z,48.03
2022-08-17T07:27:26.567Z,48.05
2022-08-17T07:29:31.180Z,48.04
2022-08-17T07:31:35.741Z,48.11
2022-08-17T07:33:40.315Z,48.2
2022-08-17T07:35:46.183Z,48.19
2022-08-17T07:37:51.640Z,48.26
2022-08-17T07:40:18.699Z,48.34
2022-08-17T07:42:23.323Z,48.33
2022-08-17T07:44:27.909Z,48.15
2022-08-17T07:46:32.530Z,48.15
2022-08-17T07:48:36.998Z,48.24
2022-08-17T07:50:41.565Z,48.21
2022-08-17T07:52:54.672Z,48.06
2022-08-17T07:54:59.191Z,48.1
2022-08-17T07:57:03.676Z,48.04
2022-08-17T07:59:09.437Z,48.32
2022-08-17T08:01:16.059Z,48.33
2022-08-17T08:03:27.290Z,48.39
2022-08-17T08:05:53.168Z,48.58
2022-08-17T08:07:57.763Z,48.79
2022-08-17T08:10:02.342Z,48.67
2022-08-17T08:12:16.928Z,48.5
2022-08-17T08:14:21.448Z,48.19
2022-08-17T08:16:32.785Z,48.31
2022-08-17T08:18:58.636Z,48.06
2022-08-17T08:21:03.208Z,48.2
2022-08-17T08:23:07.785Z,48.17
2022-08-17T08:25:12.309Z,48.13
2022-08-17T08:27:16.820Z,47.87
2022-08-17T08:29:21.433Z,47.83
2022-08-17T08:31:25.964Z,47.67
2022-08-17T08:33:30.583Z,47.76
2022-08-17T08:35:35.077Z,47.62
2022-08-17T08:37:51.994Z,47.5
2022-08-17T08:39:56.877Z,47.11
2022-08-17T08:42:01.658Z,47.27
2022-08-17T08:44:06.176Z,46.91
2022-08-17T08:46:10.667Z,47.15
2022-08-17T08:49:01.782Z,47.15
2022-08-17T08:51:16.142Z,47.15
2022-08-17T08:53:21.219Z,46.99
2022-08-17T08:55:25.786Z,47
2022-08-17T08:57:36.259Z,47.03
2022-08-17T08:59:58.847Z,47.06
2022-08-17T09:02:03.410Z,47.1
2022-08-17T09:04:26.949Z,47.11
2022-08-17T09:06:41.651Z,47.02
2022-08-17T09:08:46.273Z,47.02
2022-08-17T09:10:50.881Z,47.06
2022-08-17T09:12:55.415Z,46.99
2022-08-17T09:14:59.913Z,46.37
2022-08-17T09:17:04.446Z,46.11
2022-08-17T09:19:09.327Z,46.15
2022-08-17T09:21:14.924Z,46.19
2022-08-17T09:23:22.814Z,45.69
2022-08-17T09:25:27.281Z,45.7
2022-08-17T09:27:31.854Z,45.23
2022-08-17T09:29:36.479Z,45.19
2022-08-17T09:31:51.443Z,45.35
2022-08-17T09:33:56.062Z,45.33
2022-08-17T09:36:00.681Z,45.22
2022-08-17T09:38:06.007Z,45.18
2022-08-17T09:40:10.978Z,45.2
2022-08-17T09:42:15.502Z,45.03
2022-08-17T09:44:25.800Z,45.3
2022-08-17T09:46:30.329Z,45.2
2022-08-17T09:48:34.814Z,44.96
2022-08-17T09:51:07.691Z,44.83
2022-08-17T09:53:12.469Z,44.79
2022-08-17T09:55:17.085Z,44.94
2022-08-17T09:57:33.453Z,45.14
2022-08-17T09:59:42.902Z,45.21
2022-08-17T10:01:49.283Z,45.21
2022-08-17T10:03:53.775Z,45.23
2022-08-17T10:05:58.638Z,45.35
2022-08-17T10:08:03.324Z,45.34
2022-08-17T10:10:15.296Z,45.27
2022-08-17T10:12:20.052Z,45.2
2022-08-17T10:14:45.165Z,45.03
2022-08-17T10:16:58.182Z,45.01
2022-08-17T10:19:02.657Z,44.92
2022-08-17T10:21:07.230Z,44.93
2022-08-17T10:23:11.735Z,45.26
2022-08-17T10:25:54.471Z,44.78
2022-08-17T10:27:59.897Z,44.72
2022-08-17T10:30:04.408Z,44.44
2022-08-17T10:32:08.933Z,44.19
2022-08-17T10:34:13.434Z,43.73
2022-08-17T10:36:17.946Z,44.08
2022-08-17T10:38:26.662Z,43.68
2022-08-17T10:40:31.557Z,43.3
2022-08-17T10:42:36.138Z,43.57
2022-08-17T10:44:43.608Z,43.69
2022-08-17T10:46:48.107Z,43.53
2022-08-17T10:48:52.762Z,43.35
2022-08-17T10:50:57.242Z,43.2
2022-08-17T10:53:01.793Z,43
2022-08-17T10:55:06.308Z,42.5
2022-08-17T10:57:10.806Z,41.93
2022-08-17T10:59:15.456Z,41.86
2022-08-17T11:01:20.173Z,41.83
2022-08-17T11:03:24.756Z,41.94
2022-08-17T11:05:29.422Z,42.78
2022-08-17T11:07:34.042Z,43.49
2022-08-17T11:09:38.537Z,43.67
2022-08-17T11:11:43.078Z,43.83
2022-08-17T11:13:47.702Z,43.92
2022-08-17T11:15:52.322Z,43.86
2022-08-17T11:17:56.930Z,44.01
2022-08-17T11:20:01.365Z,43.5
2022-08-17T11:22:05.991Z,42.89
2022-08-17T11:24:10.707Z,42.45
2022-08-17T11:26:15.219Z,41.82
2022-08-17T11:28:20.308Z,41.74
2022-08-17T11:30:28.851Z,41.48
2022-08-17T11:32:35.806Z,41.4
2022-08-17T11:34:40.658Z,41.32
2022-08-17T11:36:46.622Z,41.37
2022-08-17T11:38:51.139Z,41.36
2022-08-17T11:40:55.610Z,40.76
2022-08-17T11:43:00.176Z,40.77
2022-08-17T11:45:04.685Z,40.78
2022-08-17T11:47:09.180Z,40.71
2022-08-17T11:49:13.729Z,40.56
2022-08-17T11:51:18.133Z,40.14
2022-08-17T11:53:22.666Z,40.6
2022-08-17T11:55:44.906Z,40.69
2022-08-17T11:57:49.987Z,41.03
2022-08-17T11:59:54.767Z,40.91
2022-08-17T12:01:59.789Z,41.1
2022-08-17T12:04:04.507Z,40.79
2022-08-17T12:06:09.087Z,40.75
2022-08-17T12:08:13.669Z,40.86
2022-08-17T12:10:18.375Z,40.9
2022-08-17T12:12:22.878Z,40.73
2022-08-17T12:15:17.591Z,40.78
2022-08-17T12:17:44.026Z,40.92
2022-08-17T12:19:48.543Z,40.8
2022-08-17T12:21:53.030Z,40.77
2022-08-17T12:23:57.801Z,40.49
2022-08-17T12:26:02.287Z,40.35
2022-08-17T12:28:10.942Z,40.41
2022-08-17T12:30:15.823Z,40.58
2022-08-17T12:32:20.348Z,40.2
2022-08-17T12:34:24.890Z,40.38
2022-08-17T12:36:29.396Z,40.39
2022-08-17T12:38:35.961Z,40.74
2022-08-17T12:40:40.587Z,40.46
2022-08-17T12:42:45.074Z,40.64
2022-08-17T12:44:52.676Z,40.77
2022-08-17T12:46:57.215Z,40.67
2022-08-17T12:49:02.377Z,40.43
2022-08-17T12:51:06.778Z,40.49
2022-08-17T12:53:11.190Z,40.61
2022-08-17T12:55:15.593Z,40.61
2022-08-17T12:57:19.959Z,40.47
2022-08-17T12:59:33.917Z,40.47
2022-08-17T13:01:38.740Z,40.48
2022-08-17T13:03:43.301Z,40.61
2022-08-17T13:05:47.808Z,41.01
2022-08-17T13:07:53.115Z,41.19
2022-08-17T13:09:57.535Z,41.41
2022-08-17T13:12:02.110Z,41.31
2022-08-17T13:14:06.724Z,41.15
2022-08-17T13:16:11.216Z,40.87
2022-08-17T13:18:15.800Z,40.59
2022-08-17T13:20:20.373Z,40.4
2022-08-17T13:22:24.887Z,40.21
2022-08-17T13:24:29.397Z,40.11
2022-08-17T13:26:42.748Z,40.35
2022-08-17T13:28:47.382Z,39.86
2022-08-17T13:30:51.878Z,40.61
2022-08-17T13:32:58.653Z,40.67
2022-08-17T13:35:32.946Z,40.82
2022-08-17T13:37:44.838Z,40.89
2022-08-17T13:39:49.537Z,40.93
2022-08-17T13:41:54.128Z,41.31
2022-08-17T13:43:58.626Z,41.42
2022-08-17T13:46:03.103Z,41.18
2022-08-17T13:48:07.565Z,40.18
2022-08-17T13:50:12.162Z,39.71
2022-08-17T13:52:26.640Z,40.08
2022-08-17T13:54:33.366Z,40.05
2022-08-17T13:56:40.996Z,40.49
2022-08-17T13:58:45.535Z,40.55
2022-08-17T14:00:50.048Z,40.8
2022-08-17T14:02:54.564Z,41.13
2022-08-17T14:04:59.648Z,40.8
2022-08-17T14:07:04.207Z,40.95
2022-08-17T14:09:08.740Z,41.08
2022-08-17T14:11:13.252Z,40.93
2022-08-17T14:13:17.955Z,40.99
2022-08-17T14:15:22.500Z,41.15
2022-08-17T14:17:27.117Z,41.41
2022-08-17T14:19:31.634Z,41.36
2022-08-17T14:21:36.177Z,40.87
2022-08-17T14:23:40.736Z,40.83
2022-08-17T14:25:48.154Z,40.88
2022-08-17T14:27:56.843Z,40.76
2022-08-17T14:30:01.820Z,40.74
2022-08-17T14:32:06.405Z,40.98
2022-08-17T14:34:11.051Z,41.07
2022-08-17T14:36:15.606Z,41.41
2022-08-17T14:38:20.400Z,41.45
2022-08-17T14:40:25.244Z,41.67
2022-08-17T14:42:29.850Z,41.84
2022-08-17T14:44:34.319Z,42.56
2022-08-17T14:46:38.889Z,42.68
2022-08-17T14:48:43.508Z,42.48
2022-08-17T14:50:47.995Z,42.27
2022-08-17T14:52:52.554Z,42.03
2022-08-17T14:54:57.028Z,41.73
2022-08-17T14:57:35.888Z,41.57
2022-08-17T14:59:40.383Z,41.66
2022-08-17T15:01:45.337Z,41.69
2022-08-17T15:03:49.825Z,41.83
2022-08-17T15:05:54.373Z,41.77
2022-08-17T15:07:58.991Z,41.32
2022-08-17T15:10:04.282Z,41.41
2022-08-17T15:12:08.857Z,41.46
2022-08-17T15:14:13.468Z,41.31
2022-08-17T15:16:17.987Z,41.46
2022-08-17T15:18:22.474Z,41.66
2022-08-17T15:20:27.131Z,41.64
2022-08-17T15:22:31.856Z,41.71
2022-08-17T15:24:36.379Z,41.7
2022-08-17T15:26:40.851Z,41.52
2022-08-17T15:28:55.286Z,41.7
2022-08-17T15:30:59.845Z,41.6
2022-08-17T15:33:05.753Z,40.99
2022-08-17T15:35:10.435Z,40.9
2022-08-17T15:37:14.902Z,40.4
2022-08-17T15:39:21.753Z,40.65
2022-08-17T15:41:26.413Z,40.3
2022-08-17T15:43:30.927Z,40.57
2022-08-17T15:45:35.485Z,40.49
2022-08-17T15:47:39.969Z,40.54
2022-08-17T15:49:44.426Z,40.42
2022-08-17T15:51:48.937Z,40.13
2022-08-17T15:53:53.431Z,40.2
2022-08-17T15:55:57.975Z,40.08
2022-08-17T15:58:02.453Z,39.93
2022-08-17T16:00:06.964Z,40.28
2022-08-17T16:04:27.052Z,40.3
2022-08-17T16:06:35.211Z,40.13
2022-08-17T16:08:39.732Z,39.96
2022-08-17T16:10:44.248Z,39.77
2022-08-17T16:12:48.899Z,39.69
2022-08-17T16:14:53.360Z,39.7
2022-08-17T16:16:57.861Z,39.75
2022-08-17T16:19:02.705Z,39.58
2022-08-17T16:21:07.224Z,39.38
2022-08-17T16:23:11.872Z,39.17
2022-08-17T16:25:16.397Z,39
2022-08-17T16:27:21.017Z,39.17
2022-08-17T16:29:25.636Z,39.18
2022-08-17T16:31:30.467Z,39.24
2022-08-17T16:33:34.980Z,39.26
2022-08-17T16:35:39.496Z,39.22
2022-08-17T16:37:47.781Z,39.21
2022-08-17T16:39:52.563Z,39.21
2022-08-17T16:41:57.501Z,39.09
2022-08-17T16:44:02.081Z,39.09
2022-08-17T16:46:06.600Z,39
2022-08-17T16:48:11.098Z,39
2022-08-17T16:50:15.740Z,38.99
2022-08-17T16:52:35.106Z,39.02
2022-08-17T16:54:39.715Z,39.12
2022-08-17T16:56:44.147Z,39.11
2022-08-17T16:58:53.504Z,39.26
2022-08-17T17:00:58.361Z,39.5
2022-08-17T17:03:02.855Z,39.5
2022-08-17T17:05:23.929Z,39.61
2022-08-17T17:07:28.446Z,39.55
2022-08-17T17:09:33.071Z,39.61
2022-08-17T17:11:37.589Z,39.64
2022-08-17T17:13:42.213Z,39.27
2022-08-17T17:15:46.724Z,39.4
2022-08-17T17:17:51.989Z,39.34
2022-08-17T17:19:56.673Z,39.22
2022-08-17T17:22:01.183Z,39.46
2022-08-17T17:24:05.825Z,39.93
2022-08-17T17:26:10.301Z,40
2022-08-17T17:28:14.872Z,40.08
2022-08-17T17:30:19.448Z,40.24
2022-08-17T17:32:24.054Z,40.37
2022-08-17T17:34:28.577Z,40.27
2022-08-17T17:36:33.149Z,40.23
2022-08-17T17:38:37.767Z,40.22
2022-08-17T17:40:42.287Z,40.25
2022-08-17T17:42:46.911Z,40.39
2022-08-17T17:44:51.533Z,40.32
2022-08-17T17:46:56.048Z,39.89
2022-08-17T17:49:00.597Z,39.73
2022-08-17T17:51:05.080Z,39.57
2022-08-17T17:53:09.588Z,39.76
2022-08-17T17:55:14.129Z,39.88
2022-08-17T17:57:18.647Z,39.77
2022-08-17T17:59:23.222Z,39.71
2022-08-17T18:01:28.066Z,39.9
2022-08-17T18:03:32.588Z,40.21
2022-08-17T18:05:37.243Z,40.27
2022-08-17T18:07:44.616Z,40.34
2022-08-17T18:09:54.968Z,40.42
2022-08-17T18:12:06.973Z,40.64
2022-08-17T18:14:11.491Z,40.85
2022-08-17T18:16:16.162Z,40.82
2022-08-17T18:18:20.721Z,40.54
2022-08-17T18:20:55.754Z,40.64
2022-08-17T18:23:00.579Z,40.85
2022-08-17T18:25:05.121Z,41.19
2022-08-17T18:27:10.985Z,41.61
2022-08-17T18:29:15.792Z,41.89
2022-08-17T18:31:20.298Z,42.18
2022-08-17T18:33:25.207Z,42.31
2022-08-17T18:35:29.868Z,42.05
2022-08-17T18:37:34.640Z,42.03
2022-08-17T18:39:39.951Z,42.17
2022-08-17T18:41:44.785Z,42.33
2022-08-17T18:43:55.953Z,42.48
2022-08-17T18:46:00.617Z,42.9
2022-08-17T18:48:05.372Z,43.29
2022-08-17T18:50:13.087Z,43.42
2022-08-17T18:52:17.891Z,43.8
2022-08-17T18:54:22.940Z,44.35
2022-08-17T18:56:27.674Z,44.61
2022-08-17T18:58:35.048Z,44.51
2022-08-17T19:00:39.608Z,44.32
2022-08-17T19:02:48.222Z,44.18
2022-08-17T19:04:52.899Z,44
2022-08-17T19:06:57.835Z,44.04
2022-08-17T19:09:02.350Z,44.14
2022-08-17T19:11:06.941Z,43.77
2022-08-17T19:13:15.086Z,43.68
2022-08-17T19:15:28.756Z,43.65
2022-08-17T19:17:33.311Z,43.62
2022-08-17T19:19:37.839Z,43.52
2022-08-17T19:21:42.661Z,43.44
2022-08-17T19:23:56.620Z,43.79
2022-08-17T19:26:02.049Z,44.03
2022-08-17T19:28:28.812Z,44.2
2022-08-17T19:30:33.575Z,44.17
2022-08-17T19:32:38.407Z,44.05
2022-08-17T19:34:43.159Z,44.17
2022-08-17T19:36:47.750Z,44.5
2022-08-17T19:38:52.406Z,44.64
2022-08-17T19:40:57.898Z,44.64
2022-08-17T19:43:03.023Z,44.81
2022-08-17T19:45:07.753Z,44.84
2022-08-17T19:47:12.837Z,45.13
2022-08-17T19:49:17.457Z,45.56
2022-08-17T19:51:21.964Z,45.98
2022-08-17T19:54:05.722Z,46.27
2022-08-17T19:56:10.845Z,46.07
2022-08-17T19:58:20.192Z,46.2
2022-08-17T20:00:25.362Z,46.32
2022-08-17T20:02:30.045Z,46.42
2022-08-17T20:04:35.053Z,46.54
2022-08-17T20:06:39.693Z,46.47
2022-08-17T20:08:44.302Z,46.62
2022-08-17T20:10:57.130Z,46.46
2022-08-17T20:13:01.849Z,46.29
2022-08-17T20:15:06.368Z,46.4
2022-08-17T20:17:11.040Z,46.46
2022-08-17T20:19:15.622Z,46.07
2022-08-17T20:21:22.176Z,46.14
2022-08-17T20:23:26.802Z,46.09
2022-08-17T20:25:32.792Z,46.01
2022-08-17T20:27:37.342Z,46
2022-08-17T20:29:42.919Z,45.92
2022-08-17T20:31:47.432Z,45.9
2022-08-17T20:33:51.950Z,45.88
2022-08-17T20:35:56.445Z,45.78
2022-08-17T20:38:00.995Z,45.59
2022-08-17T20:40:05.832Z,45.48
2022-08-17T20:42:10.432Z,45.56
2022-08-17T20:44:15.245Z,45.4
2022-08-17T20:46:19.884Z,45.23
2022-08-17T20:48:41.089Z,45.5
2022-08-17T20:50:45.772Z,45.11
2022-08-17T20:52:50.314Z,45.38
2022-08-17T20:54:54.971Z,45.42
2022-08-17T20:56:59.599Z,45.4
2022-08-17T20:59:04.203Z,45.43
2022-08-17T21:01:08.865Z,45.41
2022-08-17T21:03:13.547Z,45.35
2022-08-17T21:05:18.048Z,45.45
2022-08-17T21:07:22.587Z,45.51
2022-08-17T21:09:27.064Z,45.46
2022-08-17T21:12:06.857Z,45.57
2022-08-17T21:14:11.371Z,45.79
2022-08-17T21:16:15.864Z,45.99
2022-08-17T21:18:20.420Z,45.99
2022-08-17T21:20:25.036Z,45.93
2022-08-17T21:22:29.759Z,45.91
2022-08-17T21:24:34.283Z,45.97
2022-08-17T21:26:52.311Z,45.88
2022-08-17T21:29:33.857Z,45.83
2022-08-17T21:31:41.079Z,45.64
2022-08-17T21:33:48.238Z,45.8
2022-08-17T21:35:53.910Z,45.77
2022-08-17T21:38:02.986Z,45.77
2022-08-17T21:40:07.763Z,45.86
2022-08-17T21:42:12.380Z,45.67
2022-08-17T21:44:17.002Z,45.98
2022-08-17T21:46:21.495Z,45.83
2022-08-17T21:48:26.046Z,45.84
2022-08-17T21:50:32.818Z,45.84
2022-08-17T21:52:37.330Z,45.68
2022-08-17T21:54:41.853Z,45.85
2022-08-17T21:56:46.323Z,45.88
2022-08-17T21:58:50.895Z,45.84
2022-08-17T22:00:55.655Z,45.93
2022-08-17T22:03:00.336Z,46.06
2022-08-17T22:05:04.848Z,46.03
2022-08-17T22:07:09.340Z,46.01
2022-08-17T22:09:13.842Z,46.19
2022-08-17T22:11:18.342Z,46.27
2022-08-17T22:13:23.682Z,46.26
2022-08-17T22:15:41.028Z,45.95
2022-08-17T22:17:45.911Z,46.06
2022-08-17T22:19:50.629Z,46
2022-08-17T22:21:55.463Z,46.12
2022-08-17T22:24:00.183Z,46.12
2022-08-17T22:26:05.017Z,46.03
2022-08-17T22:28:09.673Z,46
2022-08-17T22:30:14.460Z,46.22
2022-08-17T22:32:19.288Z,46.02
2022-08-17T22:34:24.020Z,46.02
2022-08-17T22:36:31.866Z,46.08
2022-08-17T22:38:36.556Z,45.99
2022-08-17T22:40:42.800Z,46.04
2022-08-17T22:42:47.521Z,46.02
2022-08-17T22:44:52.257Z,46.1
2022-08-17T22:46:57.071Z,46.17
2022-08-17T22:49:01.645Z,46.33
2022-08-17T22:51:15.193Z,46.37
2022-08-17T22:53:20.046Z,46.29
2022-08-17T22:55:24.869Z,46.4
2022-08-17T22:57:29.692Z,46.4
2022-08-17T22:59:34.521Z,46.55
2022-08-17T23:01:39.347Z,46.31
2022-08-17T23:03:44.073Z,46.28
2022-08-17T23:05:48.901Z,46.26
2022-08-17T23:07:54.089Z,46.26
2022-08-17T23:09:58.858Z,46.38
2022-08-17T23:12:03.502Z,46.35
2022-08-17T23:14:08.199Z,46.41
2022-08-17T23:16:12.927Z,46.38
2022-08-17T23:18:17.619Z,46.47
2022-08-17T23:20:22.480Z,46.65
2022-08-17T23:22:27.041Z,46.63
2022-08-17T23:24:31.733Z,46.64
2022-08-17T23:26:36.550Z,46.59
2022-08-17T23:28:41.274Z,46.58
2022-08-17T23:30:46.093Z,46.58
2022-08-17T23:32:56.154Z,46.6
2022-08-17T23:35:00.801Z,46.53
2022-08-17T23:37:05.427Z,46.55
2022-08-17T23:39:10.105Z,46.65
2022-08-17T23:41:14.857Z,46.6
2022-08-17T23:43:29.203Z,46.62
2022-08-17T23:45:34.014Z,46.71
2022-08-17T23:47:38.742Z,46.58
2022-08-17T23:49:46.652Z,46.65
2022-08-17T23:51:51.376Z,46.71
2022-08-17T23:53:55.977Z,46.79
2022-08-17T23:56:12.566Z,46.93
2022-08-17T23:58:17.310Z,46.94
